sensor_id;sensor_type;location;lat;lon;timestamp;P1;durP1;ratioP1;P2;durP2;ratioP2
48098;SDS011;33877;47.444;18.934;2022-09-29T02:07:24;10.77;;;5.12;;
48098;SDS011;33877;47.444;18.934;2022-09-29T02:10:27;9.48;;;5.22;;
48098;SDS011;33877;47.444;18.934;2022-09-29T04:08:28;11.77;;;6.62;;
48098;SDS011;33877;47.444;18.934;2022-09-29T04:52:47;13.00;;;7.28;;
48098;SDS011;33877;47.444;18.934;2022-09-29T04:57:58;14.40;;;9.07;;
48098;SDS011;33877;47.444;18.934;2022-09-29T05:01:07;13.60;;;8.00;;
48098;SDS011;33877;47.444;18.934;2022-09-29T05:03:56;18.30;;;9.30;;
48098;SDS011;33877;47.444;18.934;2022-09-29T05:06:25;12.82;;;9.38;;
48098;SDS011;33877;47.444;18.934;2022-09-29T05:08:53;18.25;;;9.77;;
48098;SDS011;33877;47.444;18.934;2022-09-29T05:11:28;16.10;;;9.10;;
48098;SDS011;33877;47.444;18.934;2022-09-29T05:13:57;15.55;;;10.25;;
48098;SDS011;33877;47.444;18.934;2022-09-29T05:16:25;15.10;;;9.20;;
48098;SDS011;33877;47.444;18.934;2022-09-29T05:19:09;18.37;;;10.00;;
48098;SDS011;33877;47.444;18.934;2022-09-29T05:21:38;17.55;;;10.02;;
48098;SDS011;33877;47.444;18.934;2022-09-29T05:24:07;16.85;;;10.55;;
48098;SDS011;33877;47.444;18.934;2022-09-29T05:50:19;12.85;;;7.37;;
48098;SDS011;33877;47.444;18.934;2022-09-29T05:54:00;14.25;;;7.87;;
48098;SDS011;33877;47.444;18.934;2022-09-29T06:14:11;9.15;;;5.75;;
48098;SDS011;33877;47.444;18.934;2022-09-29T06:17:57;8.45;;;5.55;;
48098;SDS011;33877;47.444;18.934;2022-09-29T06:20:48;7.72;;;5.32;;
48098;SDS011;33877;47.444;18.934;2022-09-29T06:23:21;7.93;;;4.30;;
48098;SDS011;33877;47.444;18.934;2022-09-29T06:26:13;6.40;;;3.42;;
48098;SDS011;33877;47.444;18.934;2022-09-29T06:28:54;5.90;;;3.17;;
48098;SDS011;33877;47.444;18.934;2022-09-29T06:31:36;5.18;;;2.20;;
48098;SDS011;33877;47.444;18.934;2022-09-29T06:34:09;3.72;;;1.83;;
48098;SDS011;33877;47.444;18.934;2022-09-29T06:54:20;4.95;;;2.20;;
48098;SDS011;33877;47.444;18.934;2022-09-29T07:40:46;4.07;;;1.37;;
48098;SDS011;33877;47.444;18.934;2022-09-29T07:43:18;2.35;;;1.10;;
48098;SDS011;33877;47.444;18.934;2022-09-29T07:45:47;2.97;;;1.62;;
48098;SDS011;33877;47.444;18.934;2022-09-29T07:48:18;2.25;;;1.10;;
48098;SDS011;33877;47.444;18.934;2022-09-29T07:50:47;2.47;;;1.40;;
48098;SDS011;33877;47.444;18.934;2022-09-29T07:53:19;2.10;;;1.20;;
48098;SDS011;33877;47.444;18.934;2022-09-29T07:55:49;1.80;;;1.10;;
48098;SDS011;33877;47.444;18.934;2022-09-29T07:58:17;1.73;;;1.10;;
48098;SDS011;33877;47.444;18.934;2022-09-29T08:00:51;1.95;;;1.15;;
48098;SDS011;33877;47.444;18.934;2022-09-29T08:03:20;2.65;;;1.42;;
48098;SDS011;33877;47.444;18.934;2022-09-29T08:05:50;3.87;;;1.73;;
48098;SDS011;33877;47.444;18.934;2022-09-29T08:08:20;3.08;;;1.60;;
48098;SDS011;33877;47.444;18.934;2022-09-29T08:10:50;3.80;;;1.50;;
48098;SDS011;33877;47.444;18.934;2022-09-29T08:13:21;3.80;;;1.57;;
48098;SDS011;33877;47.444;18.934;2022-09-29T08:15:56;3.75;;;1.67;;
48098;SDS011;33877;47.444;18.934;2022-09-29T08:18:26;3.55;;;1.80;;
48098;SDS011;33877;47.444;18.934;2022-09-29T08:20:55;5.12;;;2.10;;
48098;SDS011;33877;47.444;18.934;2022-09-29T08:23:40;6.07;;;3.00;;
48098;SDS011;33877;47.444;18.934;2022-09-29T08:26:12;3.83;;;1.50;;
48098;SDS011;33877;47.444;18.934;2022-09-29T08:28:51;4.15;;;1.50;;
48098;SDS011;33877;47.444;18.934;2022-09-29T08:31:49;3.70;;;1.40;;
48098;SDS011;33877;47.444;18.934;2022-09-29T08:34:22;2.55;;;1.33;;
48098;SDS011;33877;47.444;18.934;2022-09-29T08:36:52;5.07;;;1.73;;
48098;SDS011;33877;47.444;18.934;2022-09-29T08:39:58;3.55;;;1.52;;
48098;SDS011;33877;47.444;18.934;2022-09-29T08:45:57;1.85;;;1.02;;
48098;SDS011;33877;47.444;18.934;2022-09-29T08:48:48;3.15;;;1.30;;
48098;SDS011;33877;47.444;18.934;2022-09-29T08:54:19;3.65;;;0.60;;
48098;SDS011;33877;47.444;18.934;2022-09-29T08:57:03;2.75;;;1.10;;
48098;SDS011;33877;47.444;18.934;2022-09-29T08:59:37;1.60;;;0.70;;
48098;SDS011;33877;47.444;18.934;2022-09-29T09:10:43;2.58;;;1.20;;
48098;SDS011;33877;47.444;18.934;2022-09-29T09:13:22;2.12;;;0.90;;
48098;SDS011;33877;47.444;18.934;2022-09-29T09:24:36;5.10;;;2.67;;
48098;SDS011;33877;47.444;18.934;2022-09-29T09:27:09;1.62;;;0.68;;
48098;SDS011;33877;47.444;18.934;2022-09-29T09:29:42;2.20;;;0.98;;
48098;SDS011;33877;47.444;18.934;2022-09-29T09:32:20;4.70;;;1.00;;
48098;SDS011;33877;47.444;18.934;2022-09-29T09:35:39;1.83;;;0.70;;
48098;SDS011;33877;47.444;18.934;2022-09-29T09:37:52;1.25;;;0.62;;
48098;SDS011;33877;47.444;18.934;2022-09-29T09:43:41;2.22;;;0.85;;
48098;SDS011;33877;47.444;18.934;2022-09-29T09:45:50;0.65;;;0.60;;
48098;SDS011;33877;47.444;18.934;2022-09-29T09:48:34;4.10;;;0.95;;
48098;SDS011;33877;47.444;18.934;2022-09-29T09:54:31;1.98;;;1.00;;
48098;SDS011;33877;47.444;18.934;2022-09-29T09:57:18;2.08;;;0.60;;
48098;SDS011;33877;47.444;18.934;2022-09-29T10:02:33;1.25;;;0.80;;
48098;SDS011;33877;47.444;18.934;2022-09-29T10:05:02;1.65;;;0.82;;
48098;SDS011;33877;47.444;18.934;2022-09-29T10:07:36;1.77;;;0.50;;
48098;SDS011;33877;47.444;18.934;2022-09-29T10:10:12;3.08;;;0.75;;
48098;SDS011;33877;47.444;18.934;2022-09-29T10:12:42;1.52;;;0.75;;
48098;SDS011;33877;47.444;18.934;2022-09-29T10:18:02;3.47;;;0.95;;
48098;SDS011;33877;47.444;18.934;2022-09-29T10:20:40;8.43;;;6.18;;
48098;SDS011;33877;47.444;18.934;2022-09-29T10:26:16;2.37;;;0.80;;
48098;SDS011;33877;47.444;18.934;2022-09-29T10:28:46;1.20;;;0.60;;
48098;SDS011;33877;47.444;18.934;2022-09-29T10:31:19;1.17;;;0.60;;
48098;SDS011;33877;47.444;18.934;2022-09-29T10:36:53;1.02;;;0.50;;
48098;SDS011;33877;47.444;18.934;2022-09-29T10:47:41;6.00;;;0.77;;
48098;SDS011;33877;47.444;18.934;2022-09-29T10:50:16;3.33;;;0.75;;
48098;SDS011;33877;47.444;18.934;2022-09-29T10:55:26;1.58;;;0.60;;
48098;SDS011;33877;47.444;18.934;2022-09-29T11:02:53;5.00;;;2.67;;
48098;SDS011;33877;47.444;18.934;2022-09-29T11:05:29;7.75;;;2.97;;
48098;SDS011;33877;47.444;18.934;2022-09-29T11:07:57;1.83;;;0.68;;
48098;SDS011;33877;47.444;18.934;2022-09-29T11:10:33;1.25;;;0.60;;
48098;SDS011;33877;47.444;18.934;2022-09-29T11:15:51;3.55;;;0.65;;
48098;SDS011;33877;47.444;18.934;2022-09-29T11:18:28;1.80;;;0.80;;
48098;SDS011;33877;47.444;18.934;2022-09-29T11:21:17;1.87;;;0.70;;
48098;SDS011;33877;47.444;18.934;2022-09-29T11:24:20;1.37;;;0.60;;
48098;SDS011;33877;47.444;18.934;2022-09-29T11:27:25;3.17;;;0.62;;
48098;SDS011;33877;47.444;18.934;2022-09-29T11:41:45;1.62;;;0.60;;
48098;SDS011;33877;47.444;18.934;2022-09-29T11:44:45;1.92;;;0.50;;
48098;SDS011;33877;47.444;18.934;2022-09-29T11:50:27;4.22;;;1.12;;
48098;SDS011;33877;47.444;18.934;2022-09-29T11:55:38;2.72;;;0.55;;
48098;SDS011;33877;47.444;18.934;2022-09-29T12:17:46;7.62;;;3.28;;
48098;SDS011;33877;47.444;18.934;2022-09-29T12:20:20;3.17;;;1.48;;
48098;SDS011;33877;47.444;18.934;2022-09-29T12:22:52;2.10;;;0.70;;
48098;SDS011;33877;47.444;18.934;2022-09-29T12:25:24;1.33;;;0.70;;
48098;SDS011;33877;47.444;18.934;2022-09-29T12:27:59;1.98;;;0.88;;
48098;SDS011;33877;47.444;18.934;2022-09-29T12:30:54;1.37;;;0.60;;
48098;SDS011;33877;47.444;18.934;2022-09-29T12:33:24;1.92;;;0.60;;
48098;SDS011;33877;47.444;18.934;2022-09-29T12:39:23;1.35;;;0.60;;
48098;SDS011;33877;47.444;18.934;2022-09-29T12:44:45;0.90;;;0.60;;
48098;SDS011;33877;47.444;18.934;2022-09-29T12:55:16;1.37;;;0.60;;
48098;SDS011;33877;47.444;18.934;2022-09-29T12:57:47;1.40;;;0.68;;
48098;SDS011;33877;47.444;18.934;2022-09-29T13:00:16;1.42;;;0.75;;
48098;SDS011;33877;47.444;18.934;2022-09-29T13:20:34;2.40;;;1.00;;
48098;SDS011;33877;47.444;18.934;2022-09-29T13:23:04;3.45;;;1.00;;
48098;SDS011;33877;47.444;18.934;2022-09-29T13:25:50;2.92;;;1.10;;
48098;SDS011;33877;47.444;18.934;2022-09-29T13:28:39;3.20;;;1.17;;
48098;SDS011;33877;47.444;18.934;2022-09-29T13:31:12;2.15;;;1.10;;
48098;SDS011;33877;47.444;18.934;2022-09-29T13:33:53;2.58;;;0.98;;
48098;SDS011;33877;47.444;18.934;2022-09-29T13:36:24;4.10;;;1.40;;
48098;SDS011;33877;47.444;18.934;2022-09-29T13:38:57;7.60;;;1.35;;
48098;SDS011;33877;47.444;18.934;2022-09-29T13:54:41;3.35;;;0.95;;
48098;SDS011;33877;47.444;18.934;2022-09-29T13:59:40;2.83;;;1.30;;
48098;SDS011;33877;47.444;18.934;2022-09-29T14:02:29;6.45;;;1.27;;
48098;SDS011;33877;47.444;18.934;2022-09-29T14:11:14;2.40;;;0.90;;
48098;SDS011;33877;47.444;18.934;2022-09-29T14:14:05;2.85;;;1.00;;
48098;SDS011;33877;47.444;18.934;2022-09-29T14:17:01;4.03;;;1.35;;
48098;SDS011;33877;47.444;18.934;2022-09-29T14:20:36;4.05;;;1.30;;
48098;SDS011;33877;47.444;18.934;2022-09-29T14:32:55;5.10;;;1.20;;
48098;SDS011;33877;47.444;18.934;2022-09-29T14:35:32;4.97;;;2.85;;
48098;SDS011;33877;47.444;18.934;2022-09-29T14:38:05;1.75;;;1.00;;
48098;SDS011;33877;47.444;18.934;2022-09-29T14:43:46;1.90;;;0.85;;
48098;SDS011;33877;47.444;18.934;2022-09-29T14:53:04;2.60;;;1.20;;
48098;SDS011;33877;47.444;18.934;2022-09-29T14:55:52;3.10;;;0.98;;
48098;SDS011;33877;47.444;18.934;2022-09-29T15:01:28;5.53;;;1.27;;
48098;SDS011;33877;47.444;18.934;2022-09-29T15:03:57;7.43;;;1.20;;
48098;SDS011;33877;47.444;18.934;2022-09-29T15:06:32;3.58;;;0.90;;
48098;SDS011;33877;47.444;18.934;2022-09-29T15:09:14;4.18;;;1.08;;
48098;SDS011;33877;47.444;18.934;2022-09-29T15:11:50;6.50;;;1.60;;
48098;SDS011;33877;47.444;18.934;2022-09-29T15:25:54;4.03;;;1.00;;
48098;SDS011;33877;47.444;18.934;2022-09-29T15:29:14;5.40;;;1.00;;
48098;SDS011;33877;47.444;18.934;2022-09-29T15:35:33;3.03;;;0.90;;
48098;SDS011;33877;47.444;18.934;2022-09-29T15:42:41;1.98;;;1.25;;
48098;SDS011;33877;47.444;18.934;2022-09-29T15:45:25;5.05;;;1.20;;
48098;SDS011;33877;47.444;18.934;2022-09-29T15:48:37;1.50;;;0.73;;
48098;SDS011;33877;47.444;18.934;2022-09-29T15:54:56;3.28;;;1.08;;
48098;SDS011;33877;47.444;18.934;2022-09-29T16:01:49;3.03;;;1.37;;
48098;SDS011;33877;47.444;18.934;2022-09-29T16:05:05;4.75;;;1.98;;
48098;SDS011;33877;47.444;18.934;2022-09-29T16:08:05;4.25;;;1.98;;
48098;SDS011;33877;47.444;18.934;2022-09-29T16:11:30;4.35;;;2.12;;
48098;SDS011;33877;47.444;18.934;2022-09-29T16:17:02;5.97;;;2.40;;
48098;SDS011;33877;47.444;18.934;2022-09-29T16:20:13;5.60;;;2.37;;
48098;SDS011;33877;47.444;18.934;2022-09-29T16:23:44;6.47;;;2.70;;
48098;SDS011;33877;47.444;18.934;2022-09-29T16:26:53;5.95;;;2.60;;
48098;SDS011;33877;47.444;18.934;2022-09-29T16:30:33;7.18;;;3.00;;
48098;SDS011;33877;47.444;18.934;2022-09-29T16:33:33;5.35;;;2.65;;
48098;SDS011;33877;47.444;18.934;2022-09-29T16:37:15;5.43;;;2.58;;
48098;SDS011;33877;47.444;18.934;2022-09-29T16:40:29;6.05;;;3.10;;
48098;SDS011;33877;47.444;18.934;2022-09-29T16:43:29;8.95;;;3.40;;
48098;SDS011;33877;47.444;18.934;2022-09-29T16:46:34;9.40;;;3.97;;
48098;SDS011;33877;47.444;18.934;2022-09-29T16:50:02;8.02;;;4.25;;
48098;SDS011;33877;47.444;18.934;2022-09-29T16:53:03;8.52;;;3.37;;
48098;SDS011;33877;47.444;18.934;2022-09-29T16:55:41;7.90;;;3.67;;
48098;SDS011;33877;47.444;18.934;2022-09-29T16:59:12;9.95;;;4.18;;
48098;SDS011;33877;47.444;18.934;2022-09-29T17:02:03;6.68;;;4.22;;
48098;SDS011;33877;47.444;18.934;2022-09-29T17:05:16;7.75;;;4.00;;
48098;SDS011;33877;47.444;18.934;2022-09-29T17:08:28;11.27;;;4.37;;
48098;SDS011;33877;47.444;18.934;2022-09-29T17:11:30;11.52;;;3.65;;
48098;SDS011;33877;47.444;18.934;2022-09-29T17:14:18;12.30;;;3.60;;
48098;SDS011;33877;47.444;18.934;2022-09-29T17:17:13;9.23;;;3.60;;
48098;SDS011;33877;47.444;18.934;2022-09-29T17:20:04;11.55;;;5.07;;
48098;SDS011;33877;47.444;18.934;2022-09-29T17:23:09;12.65;;;4.65;;
48098;SDS011;33877;47.444;18.934;2022-09-29T17:25:50;8.65;;;4.10;;
48098;SDS011;33877;47.444;18.934;2022-09-29T17:28:24;10.30;;;5.07;;
48098;SDS011;33877;47.444;18.934;2022-09-29T17:31:21;12.95;;;5.65;;
48098;SDS011;33877;47.444;18.934;2022-09-29T17:34:14;10.32;;;5.00;;
48098;SDS011;33877;47.444;18.934;2022-09-29T17:37:15;12.57;;;6.50;;
48098;SDS011;33877;47.444;18.934;2022-09-29T17:39:46;11.50;;;6.20;;
48098;SDS011;33877;47.444;18.934;2022-09-29T17:42:41;10.77;;;4.82;;
48098;SDS011;33877;47.444;18.934;2022-09-29T17:45:26;9.27;;;5.47;;
48098;SDS011;33877;47.444;18.934;2022-09-29T17:48:49;13.52;;;8.25;;
48098;SDS011;33877;47.444;18.934;2022-09-29T17:51:52;15.13;;;7.95;;
48098;SDS011;33877;47.444;18.934;2022-09-29T17:54:32;14.30;;;8.48;;
48098;SDS011;33877;47.444;18.934;2022-09-29T17:57:18;11.63;;;7.35;;
48098;SDS011;33877;47.444;18.934;2022-09-29T18:00:01;13.73;;;7.45;;
48098;SDS011;33877;47.444;18.934;2022-09-29T18:02:40;11.23;;;7.30;;
48098;SDS011;33877;47.444;18.934;2022-09-29T18:05:45;12.98;;;7.47;;
48098;SDS011;33877;47.444;18.934;2022-09-29T18:08:58;11.60;;;6.62;;
48098;SDS011;33877;47.444;18.934;2022-09-29T18:11:58;12.10;;;6.72;;
48098;SDS011;33877;47.444;18.934;2022-09-29T18:15:35;10.60;;;6.45;;
48098;SDS011;33877;47.444;18.934;2022-09-29T18:18:48;11.30;;;5.22;;
48098;SDS011;33877;47.444;18.934;2022-09-29T18:21:28;13.77;;;5.60;;
48098;SDS011;33877;47.444;18.934;2022-09-29T18:24:03;9.65;;;5.97;;
48098;SDS011;33877;47.444;18.934;2022-09-29T18:27:25;10.07;;;6.55;;
48098;SDS011;33877;47.444;18.934;2022-09-29T18:30:31;12.25;;;6.20;;
48098;SDS011;33877;47.444;18.934;2022-09-29T18:33:55;9.95;;;5.57;;
48098;SDS011;33877;47.444;18.934;2022-09-29T18:37:22;9.70;;;5.97;;
48098;SDS011;33877;47.444;18.934;2022-09-29T18:40:28;11.18;;;6.30;;
48098;SDS011;33877;47.444;18.934;2022-09-29T18:43:36;12.02;;;6.57;;
48098;SDS011;33877;47.444;18.934;2022-09-29T18:47:00;10.00;;;5.53;;
48098;SDS011;33877;47.444;18.934;2022-09-29T18:50:13;11.48;;;6.18;;
48098;SDS011;33877;47.444;18.934;2022-09-29T18:53:41;9.27;;;5.43;;
48098;SDS011;33877;47.444;18.934;2022-09-29T18:56:25;10.57;;;5.80;;
48098;SDS011;33877;47.444;18.934;2022-09-29T18:59:22;10.13;;;5.85;;
48098;SDS011;33877;47.444;18.934;2022-09-29T19:02:31;14.43;;;6.35;;
48098;SDS011;33877;47.444;18.934;2022-09-29T19:06:04;13.15;;;6.85;;
48098;SDS011;33877;47.444;18.934;2022-09-29T19:09:43;12.70;;;7.32;;
48098;SDS011;33877;47.444;18.934;2022-09-29T19:13:11;12.37;;;7.70;;
48098;SDS011;33877;47.444;18.934;2022-09-29T19:15:58;13.60;;;7.18;;
48098;SDS011;33877;47.444;18.934;2022-09-29T19:19:03;13.02;;;7.57;;
48098;SDS011;33877;47.444;18.934;2022-09-29T19:22:03;16.90;;;8.32;;
48098;SDS011;33877;47.444;18.934;2022-09-29T19:25:23;13.73;;;7.12;;
48098;SDS011;33877;47.444;18.934;2022-09-29T19:28:20;13.75;;;7.28;;
48098;SDS011;33877;47.444;18.934;2022-09-29T19:31:10;16.67;;;6.95;;
48098;SDS011;33877;47.444;18.934;2022-09-29T19:34:04;13.10;;;7.03;;
48098;SDS011;33877;47.444;18.934;2022-09-29T19:36:39;13.25;;;8.02;;
48098;SDS011;33877;47.444;18.934;2022-09-29T19:39:33;18.75;;;10.25;;
48098;SDS011;33877;47.444;18.934;2022-09-29T19:42:20;19.92;;;12.18;;
48098;SDS011;33877;47.444;18.934;2022-09-29T19:45:05;21.58;;;11.57;;
48098;SDS011;33877;47.444;18.934;2022-09-29T19:47:48;19.52;;;11.63;;
48098;SDS011;33877;47.444;18.934;2022-09-29T19:50:34;16.77;;;9.13;;
48098;SDS011;33877;47.444;18.934;2022-09-29T19:53:31;11.50;;;7.85;;
48098;SDS011;33877;47.444;18.934;2022-09-29T19:56:40;11.30;;;6.45;;
48098;SDS011;33877;47.444;18.934;2022-09-29T19:59:40;13.43;;;5.60;;
48098;SDS011;33877;47.444;18.934;2022-09-29T20:02:57;12.15;;;6.53;;
48098;SDS011;33877;47.444;18.934;2022-09-29T20:06:03;13.40;;;6.20;;
48098;SDS011;33877;47.444;18.934;2022-09-29T20:09:02;12.05;;;6.87;;
48098;SDS011;33877;47.444;18.934;2022-09-29T20:11:50;12.45;;;7.03;;
48098;SDS011;33877;47.444;18.934;2022-09-29T20:14:27;13.77;;;8.23;;
48098;SDS011;33877;47.444;18.934;2022-09-29T20:17:26;16.75;;;11.38;;
48098;SDS011;33877;47.444;18.934;2022-09-29T20:20:47;20.00;;;14.87;;
48098;SDS011;33877;47.444;18.934;2022-09-29T20:24:16;18.40;;;12.75;;
48098;SDS011;33877;47.444;18.934;2022-09-29T20:27:24;15.90;;;10.57;;
48098;SDS011;33877;47.444;18.934;2022-09-29T20:30:55;17.92;;;10.40;;
48098;SDS011;33877;47.444;18.934;2022-09-29T20:34:08;26.87;;;9.93;;
48098;SDS011;33877;47.444;18.934;2022-09-29T20:37:18;21.23;;;9.88;;
48098;SDS011;33877;47.444;18.934;2022-09-29T20:40:18;14.10;;;7.93;;
48098;SDS011;33877;47.444;18.934;2022-09-29T20:43:02;14.80;;;7.35;;
48098;SDS011;33877;47.444;18.934;2022-09-29T20:45:58;13.15;;;8.70;;
48098;SDS011;33877;47.444;18.934;2022-09-29T20:48:38;12.85;;;7.75;;
48098;SDS011;33877;47.444;18.934;2022-09-29T20:51:24;18.60;;;8.52;;
48098;SDS011;33877;47.444;18.934;2022-09-29T20:54:24;16.70;;;9.18;;
48098;SDS011;33877;47.444;18.934;2022-09-29T20:57:30;16.65;;;9.05;;
48098;SDS011;33877;47.444;18.934;2022-09-29T21:00:25;18.98;;;9.82;;
48098;SDS011;33877;47.444;18.934;2022-09-29T21:03:15;14.98;;;8.93;;
48098;SDS011;33877;47.444;18.934;2022-09-29T21:06:39;13.77;;;7.60;;
48098;SDS011;33877;47.444;18.934;2022-09-29T21:09:57;13.15;;;7.57;;
48098;SDS011;33877;47.444;18.934;2022-09-29T21:13:14;11.85;;;6.15;;
48098;SDS011;33877;47.444;18.934;2022-09-29T21:16:00;11.00;;;6.40;;
48098;SDS011;33877;47.444;18.934;2022-09-29T21:18:58;9.55;;;5.53;;
48098;SDS011;33877;47.444;18.934;2022-09-29T21:22:06;9.95;;;5.47;;
48098;SDS011;33877;47.444;18.934;2022-09-29T21:25:12;8.05;;;4.80;;
48098;SDS011;33877;47.444;18.934;2022-09-29T21:28:36;12.13;;;4.75;;
48098;SDS011;33877;47.444;18.934;2022-09-29T21:31:29;10.43;;;5.65;;
48098;SDS011;33877;47.444;18.934;2022-09-29T21:34:51;10.85;;;5.72;;
48098;SDS011;33877;47.444;18.934;2022-09-29T21:37:32;9.50;;;5.35;;
48098;SDS011;33877;47.444;18.934;2022-09-29T21:40:46;7.47;;;4.82;;
48098;SDS011;33877;47.444;18.934;2022-09-29T21:43:55;8.77;;;4.80;;
48098;SDS011;33877;47.444;18.934;2022-09-29T21:47:19;10.18;;;5.10;;
48098;SDS011;33877;47.444;18.934;2022-09-29T21:50:13;15.55;;;6.05;;
48098;SDS011;33877;47.444;18.934;2022-09-29T21:53:14;11.02;;;6.00;;
48098;SDS011;33877;47.444;18.934;2022-09-29T21:56:54;10.75;;;5.68;;
48098;SDS011;33877;47.444;18.934;2022-09-29T22:00:10;11.77;;;5.70;;
48098;SDS011;33877;47.444;18.934;2022-09-29T22:03:39;9.50;;;6.07;;
48098;SDS011;33877;47.444;18.934;2022-09-29T22:07:15;12.35;;;6.62;;
48098;SDS011;33877;47.444;18.934;2022-09-29T22:11:17;9.35;;;6.35;;
48098;SDS011;33877;47.444;18.934;2022-09-29T22:14:52;12.18;;;6.82;;
48098;SDS011;33877;47.444;18.934;2022-09-29T22:18:42;12.65;;;7.22;;
48098;SDS011;33877;47.444;18.934;2022-09-29T22:22:48;11.55;;;6.60;;
48098;SDS011;33877;47.444;18.934;2022-09-29T22:26:12;11.00;;;6.75;;
48098;SDS011;33877;47.444;18.934;2022-09-29T22:29:59;12.43;;;7.07;;
48098;SDS011;33877;47.444;18.934;2022-09-29T22:33:52;10.20;;;6.55;;
48098;SDS011;33877;47.444;18.934;2022-09-29T22:37:47;11.18;;;7.28;;
48098;SDS011;33877;47.444;18.934;2022-09-29T22:41:38;13.15;;;6.78;;
48098;SDS011;33877;47.444;18.934;2022-09-29T22:45:05;9.48;;;7.18;;
48098;SDS011;33877;47.444;18.934;2022-09-29T22:49:15;11.63;;;7.18;;
48098;SDS011;33877;47.444;18.934;2022-09-29T22:52:26;11.20;;;6.72;;
48098;SDS011;33877;47.444;18.934;2022-09-29T23:00:00;11.55;;;6.30;;
48098;SDS011;33877;47.444;18.934;2022-09-29T23:03:39;10.80;;;6.57;;
48098;SDS011;33877;47.444;18.934;2022-09-29T23:07:54;11.75;;;6.57;;
48098;SDS011;33877;47.444;18.934;2022-09-29T23:11:58;11.80;;;6.28;;
48098;SDS011;33877;47.444;18.934;2022-09-29T23:15:30;10.95;;;7.07;;
48098;SDS011;33877;47.444;18.934;2022-09-29T23:19:02;9.65;;;6.57;;
48098;SDS011;33877;47.444;18.934;2022-09-29T23:22:48;10.02;;;6.70;;
48098;SDS011;33877;47.444;18.934;2022-09-29T23:26:20;10.60;;;6.37;;
48098;SDS011;33877;47.444;18.934;2022-09-29T23:30:24;11.25;;;6.37;;
48098;SDS011;33877;47.444;18.934;2022-09-29T23:34:14;11.68;;;6.12;;
48098;SDS011;33877;47.444;18.934;2022-09-29T23:37:43;11.45;;;6.70;;
48098;SDS011;33877;47.444;18.934;2022-09-29T23:45:38;13.32;;;6.87;;
48098;SDS011;33877;47.444;18.934;2022-09-29T23:48:57;11.93;;;7.32;;
48098;SDS011;33877;47.444;18.934;2022-09-29T23:59:40;11.38;;;6.70;;
